sensor_id;sensor_type;location;lat;lon;timestamp;temperature;humidity
37478;DHT22;23334;54.316;10.182;2023-01-30T00:01:31;5.60;99.90
37478;DHT22;23334;54.316;10.182;2023-01-30T00:03:57;5.70;99.90
37478;DHT22;23334;54.316;10.182;2023-01-30T00:06:23;5.60;99.90
37478;DHT22;23334;54.316;10.182;2023-01-30T00:08:48;5.90;99.90
37478;DHT22;23334;54.316;10.182;2023-01-30T00:11:16;5.60;99.90
37478;DHT22;23334;54.316;10.182;2023-01-30T00:13:42;5.70;99.90
37478;DHT22;23334;54.316;10.182;2023-01-30T00:18:35;5.90;99.90
37478;DHT22;23334;54.316;10.182;2023-01-30T00:21:03;6.00;99.90
37478;DHT22;23334;54.316;10.182;2023-01-30T00:23:32;5.80;99.90
37478;DHT22;23334;54.316;10.182;2023-01-30T00:25:58;5.50;99.90
37478;DHT22;23334;54.316;10.182;2023-01-30T00:28:23;5.70;99.90
37478;DHT22;23334;54.316;10.182;2023-01-30T00:30:50;5.80;99.90
37478;DHT22;23334;54.316;10.182;2023-01-30T00:33:18;5.50;99.90
37478;DHT22;23334;54.316;10.182;2023-01-30T00:35:48;5.50;99.90
37478;DHT22;23334;54.316;10.182;2023-01-30T00:38:15;5.50;99.90
37478;DHT22;23334;54.316;10.182;2023-01-30T00:40:42;5.70;99.90
37478;DHT22;23334;54.316;10.182;2023-01-30T00:43:11;5.50;99.90
37478;DHT22;23334;54.316;10.182;2023-01-30T00:45:56;5.60;99.90
37478;DHT22;23334;54.316;10.182;2023-01-30T00:48:40;5.90;99.90
37478;DHT22;23334;54.316;10.182;2023-01-30T00:51:05;5.80;99.90
37478;DHT22;23334;54.316;10.182;2023-01-30T00:53:31;5.60;99.90
37478;DHT22;23334;54.316;10.182;2023-01-30T00:55:56;5.50;99.90
37478;DHT22;23334;54.316;10.182;2023-01-30T00:58:22;5.40;99.90
37478;DHT22;23334;54.316;10.182;2023-01-30T01:00:49;5.60;99.90
37478;DHT22;23334;54.316;10.182;2023-01-30T01:03:15;5.50;99.90
37478;DHT22;23334;54.316;10.182;2023-01-30T01:05:41;5.70;99.90
37478;DHT22;23334;54.316;10.182;2023-01-30T01:10:33;5.60;99.90
37478;DHT22;23334;54.316;10.182;2023-01-30T01:12:58;6.60;99.90
37478;DHT22;23334;54.316;10.182;2023-01-30T01:15:25;5.30;99.90
37478;DHT22;23334;54.316;10.182;2023-01-30T01:17:51;5.60;99.90
37478;DHT22;23334;54.316;10.182;2023-01-30T01:20:16;5.80;99.90
37478;DHT22;23334;54.316;10.182;2023-01-30T01:22:42;5.50;99.90
37478;DHT22;23334;54.316;10.182;2023-01-30T01:25:09;5.60;99.90
37478;DHT22;23334;54.316;10.182;2023-01-30T01:27:35;5.60;99.90
37478;DHT22;23334;54.316;10.182;2023-01-30T01:30:01;6.00;99.90
37478;DHT22;23334;54.316;10.182;2023-01-30T01:32:26;7.10;99.90
37478;DHT22;23334;54.316;10.182;2023-01-30T01:34:52;6.30;99.90
37478;DHT22;23334;54.316;10.182;2023-01-30T01:39:43;6.00;99.90
37478;DHT22;23334;54.316;10.182;2023-01-30T01:42:30;5.70;99.90
37478;DHT22;23334;54.316;10.182;2023-01-30T01:47:30;5.50;99.90
37478;DHT22;23334;54.316;10.182;2023-01-30T01:49:56;5.90;99.90
37478;DHT22;23334;54.316;10.182;2023-01-30T01:52:21;5.50;99.90
37478;DHT22;23334;54.316;10.182;2023-01-30T01:54:51;5.60;99.90
37478;DHT22;23334;54.316;10.182;2023-01-30T01:57:41;5.70;99.90
37478;DHT22;23334;54.316;10.182;2023-01-30T02:00:13;6.00;99.90
37478;DHT22;23334;54.316;10.182;2023-01-30T02:02:51;6.00;99.90
37478;DHT22;23334;54.316;10.182;2023-01-30T02:05:19;5.90;99.90
37478;DHT22;23334;54.316;10.182;2023-01-30T02:07:49;6.10;99.90
37478;DHT22;23334;54.316;10.182;2023-01-30T02:10:19;6.10;99.90
37478;DHT22;23334;54.316;10.182;2023-01-30T02:12:47;5.70;99.90
37478;DHT22;23334;54.316;10.182;2023-01-30T02:15:13;6.00;99.90
37478;DHT22;23334;54.316;10.182;2023-01-30T02:17:38;6.00;99.90
37478;DHT22;23334;54.316;10.182;2023-01-30T02:20:34;6.50;99.90
37478;DHT22;23334;54.316;10.182;2023-01-30T02:26:02;6.00;99.90
37478;DHT22;23334;54.316;10.182;2023-01-30T02:29:06;6.30;99.90
37478;DHT22;23334;54.316;10.182;2023-01-30T02:34:43;6.40;99.90
37478;DHT22;23334;54.316;10.182;2023-01-30T02:43:14;6.40;99.90
37478;DHT22;23334;54.316;10.182;2023-01-30T02:45:58;6.90;99.90
37478;DHT22;23334;54.316;10.182;2023-01-30T02:51:20;6.40;99.90
37478;DHT22;23334;54.316;10.182;2023-01-30T02:53:47;6.20;99.90
37478;DHT22;23334;54.316;10.182;2023-01-30T02:56:13;5.90;99.90
37478;DHT22;23334;54.316;10.182;2023-01-30T02:58:52;5.80;99.90
37478;DHT22;23334;54.316;10.182;2023-01-30T03:04:43;6.40;99.90
37478;DHT22;23334;54.316;10.182;2023-01-30T03:16:00;6.10;99.90
37478;DHT22;23334;54.316;10.182;2023-01-30T03:18:27;5.70;99.90
37478;DHT22;23334;54.316;10.182;2023-01-30T03:23:19;5.70;99.90
37478;DHT22;23334;54.316;10.182;2023-01-30T03:25:45;4.90;99.90
37478;DHT22;23334;54.316;10.182;2023-01-30T03:28:14;5.20;99.90
37478;DHT22;23334;54.316;10.182;2023-01-30T03:30:41;5.10;99.90
37478;DHT22;23334;54.316;10.182;2023-01-30T03:33:06;5.10;99.90
37478;DHT22;23334;54.316;10.182;2023-01-30T03:35:32;4.90;99.90
37478;DHT22;23334;54.316;10.182;2023-01-30T03:37:57;4.80;99.90
37478;DHT22;23334;54.316;10.182;2023-01-30T03:40:23;5.10;99.90
37478;DHT22;23334;54.316;10.182;2023-01-30T03:42:49;4.80;99.90
37478;DHT22;23334;54.316;10.182;2023-01-30T03:45:14;4.90;99.90
37478;DHT22;23334;54.316;10.182;2023-01-30T03:47:40;5.30;99.90
37478;DHT22;23334;54.316;10.182;2023-01-30T03:50:05;5.40;99.90
37478;DHT22;23334;54.316;10.182;2023-01-30T03:52:33;5.20;99.90
37478;DHT22;23334;54.316;10.182;2023-01-30T03:54:59;5.90;99.90
37478;DHT22;23334;54.316;10.182;2023-01-30T03:57:24;5.20;99.90
37478;DHT22;23334;54.316;10.182;2023-01-30T03:59:50;4.90;99.90
37478;DHT22;23334;54.316;10.182;2023-01-30T04:02:15;5.20;99.90
37478;DHT22;23334;54.316;10.182;2023-01-30T04:04:46;6.00;99.90
37478;DHT22;23334;54.316;10.182;2023-01-30T04:07:11;4.90;99.90
37478;DHT22;23334;54.316;10.182;2023-01-30T04:09:37;4.80;99.90
37478;DHT22;23334;54.316;10.182;2023-01-30T04:12:03;4.50;99.90
37478;DHT22;23334;54.316;10.182;2023-01-30T04:14:28;5.00;99.90
37478;DHT22;23334;54.316;10.182;2023-01-30T04:16:54;4.80;99.90
37478;DHT22;23334;54.316;10.182;2023-01-30T04:19:19;5.00;99.90
37478;DHT22;23334;54.316;10.182;2023-01-30T04:21:46;4.40;99.90
37478;DHT22;23334;54.316;10.182;2023-01-30T04:24:11;4.70;99.90
37478;DHT22;23334;54.316;10.182;2023-01-30T04:26:37;4.30;99.90
37478;DHT22;23334;54.316;10.182;2023-01-30T04:29:02;4.70;99.90
37478;DHT22;23334;54.316;10.182;2023-01-30T04:33:53;4.80;99.90
37478;DHT22;23334;54.316;10.182;2023-01-30T04:36:19;4.60;99.90
37478;DHT22;23334;54.316;10.182;2023-01-30T04:38:44;4.30;99.90
37478;DHT22;23334;54.316;10.182;2023-01-30T04:41:10;4.50;99.90
37478;DHT22;23334;54.316;10.182;2023-01-30T04:46:01;4.50;99.90
37478;DHT22;23334;54.316;10.182;2023-01-30T04:48:27;4.30;99.90
37478;DHT22;23334;54.316;10.182;2023-01-30T04:50:54;4.40;99.90
37478;DHT22;23334;54.316;10.182;2023-01-30T04:55:47;4.70;99.90
37478;DHT22;23334;54.316;10.182;2023-01-30T04:58:12;4.40;99.90
37478;DHT22;23334;54.316;10.182;2023-01-30T05:00:38;4.30;99.90
37478;DHT22;23334;54.316;10.182;2023-01-30T05:03:03;4.10;99.90
37478;DHT22;23334;54.316;10.182;2023-01-30T05:05:30;4.00;99.90
37478;DHT22;23334;54.316;10.182;2023-01-30T05:10:22;4.20;99.90
37478;DHT22;23334;54.316;10.182;2023-01-30T05:12:47;4.60;99.90
37478;DHT22;23334;54.316;10.182;2023-01-30T05:15:13;4.30;99.90
37478;DHT22;23334;54.316;10.182;2023-01-30T05:17:39;4.20;99.90
37478;DHT22;23334;54.316;10.182;2023-01-30T05:20:08;4.30;99.90
37478;DHT22;23334;54.316;10.182;2023-01-30T05:22:34;4.10;99.90
37478;DHT22;23334;54.316;10.182;2023-01-30T05:24:59;3.90;99.90
37478;DHT22;23334;54.316;10.182;2023-01-30T05:27:25;4.30;99.90
37478;DHT22;23334;54.316;10.182;2023-01-30T05:29:50;4.30;99.90
37478;DHT22;23334;54.316;10.182;2023-01-30T05:32:17;4.20;99.90
37478;DHT22;23334;54.316;10.182;2023-01-30T05:34:43;4.00;99.90
37478;DHT22;23334;54.316;10.182;2023-01-30T05:37:10;4.40;99.90
37478;DHT22;23334;54.316;10.182;2023-01-30T05:39:35;4.50;99.90
37478;DHT22;23334;54.316;10.182;2023-01-30T05:42:01;4.30;99.90
37478;DHT22;23334;54.316;10.182;2023-01-30T05:44:27;4.10;99.90
37478;DHT22;23334;54.316;10.182;2023-01-30T05:46:52;4.00;99.90
37478;DHT22;23334;54.316;10.182;2023-01-30T05:51:43;4.50;99.90
37478;DHT22;23334;54.316;10.182;2023-01-30T05:54:09;4.30;99.90
37478;DHT22;23334;54.316;10.182;2023-01-30T05:56:34;4.30;99.90
37478;DHT22;23334;54.316;10.182;2023-01-30T05:59:02;4.50;99.90
37478;DHT22;23334;54.316;10.182;2023-01-30T06:01:28;4.40;99.90
37478;DHT22;23334;54.316;10.182;2023-01-30T06:03:54;4.40;99.90
37478;DHT22;23334;54.316;10.182;2023-01-30T06:06:21;4.60;99.90
37478;DHT22;23334;54.316;10.182;2023-01-30T06:11:15;4.90;99.90
37478;DHT22;23334;54.316;10.182;2023-01-30T06:13:41;4.60;99.90
37478;DHT22;23334;54.316;10.182;2023-01-30T06:16:08;4.60;99.90
37478;DHT22;23334;54.316;10.182;2023-01-30T06:18:34;4.70;99.90
37478;DHT22;23334;54.316;10.182;2023-01-30T06:21:00;4.50;99.90
37478;DHT22;23334;54.316;10.182;2023-01-30T06:25:52;4.60;99.90
37478;DHT22;23334;54.316;10.182;2023-01-30T06:28:19;5.60;99.90
37478;DHT22;23334;54.316;10.182;2023-01-30T06:30:45;4.60;99.90
37478;DHT22;23334;54.316;10.182;2023-01-30T06:33:10;4.40;99.90
37478;DHT22;23334;54.316;10.182;2023-01-30T06:35:37;4.50;99.90
37478;DHT22;23334;54.316;10.182;2023-01-30T06:38:03;4.40;99.90
37478;DHT22;23334;54.316;10.182;2023-01-30T06:40:30;4.70;99.90
37478;DHT22;23334;54.316;10.182;2023-01-30T06:45:21;5.90;99.90
37478;DHT22;23334;54.316;10.182;2023-01-30T06:47:52;4.70;99.90
37478;DHT22;23334;54.316;10.182;2023-01-30T06:50:19;4.90;99.90
37478;DHT22;23334;54.316;10.182;2023-01-30T06:52:47;5.20;99.90
37478;DHT22;23334;54.316;10.182;2023-01-30T06:55:14;4.40;99.90
37478;DHT22;23334;54.316;10.182;2023-01-30T06:57:41;4.60;99.90
37478;DHT22;23334;54.316;10.182;2023-01-30T07:00:09;5.10;99.90
37478;DHT22;23334;54.316;10.182;2023-01-30T07:05:04;5.10;99.90
37478;DHT22;23334;54.316;10.182;2023-01-30T07:07:30;5.10;99.90
37478;DHT22;23334;54.316;10.182;2023-01-30T07:09:57;5.20;99.90
37478;DHT22;23334;54.316;10.182;2023-01-30T07:12:23;5.00;99.90
37478;DHT22;23334;54.316;10.182;2023-01-30T07:14:49;4.80;99.90
37478;DHT22;23334;54.316;10.182;2023-01-30T07:17:15;5.00;99.90
37478;DHT22;23334;54.316;10.182;2023-01-30T07:19:45;5.30;99.90
37478;DHT22;23334;54.316;10.182;2023-01-30T07:22:11;5.30;99.90
37478;DHT22;23334;54.316;10.182;2023-01-30T07:24:36;5.00;99.90
37478;DHT22;23334;54.316;10.182;2023-01-30T07:27:05;5.10;99.90
37478;DHT22;23334;54.316;10.182;2023-01-30T07:31:57;5.30;99.90
37478;DHT22;23334;54.316;10.182;2023-01-30T07:36:48;5.70;99.90
37478;DHT22;23334;54.316;10.182;2023-01-30T07:39:14;5.60;99.90
37478;DHT22;23334;54.316;10.182;2023-01-30T07:41:39;5.80;99.90
37478;DHT22;23334;54.316;10.182;2023-01-30T07:46:31;5.60;99.90
37478;DHT22;23334;54.316;10.182;2023-01-30T07:49:08;5.70;99.90
37478;DHT22;23334;54.316;10.182;2023-01-30T07:51:34;5.50;99.90
37478;DHT22;23334;54.316;10.182;2023-01-30T07:54:00;6.90;99.90
37478;DHT22;23334;54.316;10.182;2023-01-30T07:56:26;6.00;99.90
37478;DHT22;23334;54.316;10.182;2023-01-30T07:58:53;6.30;99.90
37478;DHT22;23334;54.316;10.182;2023-01-30T08:01:19;5.90;99.90
37478;DHT22;23334;54.316;10.182;2023-01-30T08:03:44;6.50;99.90
37478;DHT22;23334;54.316;10.182;2023-01-30T08:06:11;6.60;99.90
37478;DHT22;23334;54.316;10.182;2023-01-30T08:08:38;6.50;99.90
37478;DHT22;23334;54.316;10.182;2023-01-30T08:11:04;6.60;99.90
37478;DHT22;23334;54.316;10.182;2023-01-30T08:13:29;6.40;99.90
37478;DHT22;23334;54.316;10.182;2023-01-30T08:15:58;6.20;99.90
37478;DHT22;23334;54.316;10.182;2023-01-30T08:20:50;5.90;99.90
37478;DHT22;23334;54.316;10.182;2023-01-30T08:23:15;6.00;99.90
37478;DHT22;23334;54.316;10.182;2023-01-30T08:28:07;5.90;99.90
37478;DHT22;23334;54.316;10.182;2023-01-30T08:30:32;5.80;99.90
37478;DHT22;23334;54.316;10.182;2023-01-30T08:32:58;5.60;99.90
37478;DHT22;23334;54.316;10.182;2023-01-30T08:35:23;5.40;99.90
37478;DHT22;23334;54.316;10.182;2023-01-30T08:37:49;5.50;99.90
37478;DHT22;23334;54.316;10.182;2023-01-30T08:40:14;4.90;99.90
37478;DHT22;23334;54.316;10.182;2023-01-30T08:42:42;4.80;99.90
37478;DHT22;23334;54.316;10.182;2023-01-30T08:45:08;4.20;99.90
37478;DHT22;23334;54.316;10.182;2023-01-30T08:47:34;4.40;99.90
37478;DHT22;23334;54.316;10.182;2023-01-30T08:50:00;4.10;99.90
37478;DHT22;23334;54.316;10.182;2023-01-30T08:52:25;4.00;99.90
37478;DHT22;23334;54.316;10.182;2023-01-30T08:54:51;3.50;99.90
37478;DHT22;23334;54.316;10.182;2023-01-30T08:59:42;3.50;99.90
37478;DHT22;23334;54.316;10.182;2023-01-30T09:02:11;3.40;99.90
37478;DHT22;23334;54.316;10.182;2023-01-30T09:04:37;3.30;99.90
37478;DHT22;23334;54.316;10.182;2023-01-30T09:07:03;3.60;99.90
37478;DHT22;23334;54.316;10.182;2023-01-30T09:09:29;3.60;99.90
37478;DHT22;23334;54.316;10.182;2023-01-30T09:11:54;3.30;99.90
37478;DHT22;23334;54.316;10.182;2023-01-30T09:14:20;3.30;99.90
37478;DHT22;23334;54.316;10.182;2023-01-30T09:16:46;3.60;99.90
37478;DHT22;23334;54.316;10.182;2023-01-30T09:19:12;3.90;99.90
37478;DHT22;23334;54.316;10.182;2023-01-30T09:21:38;3.70;99.90
37478;DHT22;23334;54.316;10.182;2023-01-30T09:24:04;4.00;99.90
37478;DHT22;23334;54.316;10.182;2023-01-30T09:26:30;4.50;99.90
37478;DHT22;23334;54.316;10.182;2023-01-30T09:28:55;4.90;99.90
37478;DHT22;23334;54.316;10.182;2023-01-30T09:31:21;4.70;99.90
37478;DHT22;23334;54.316;10.182;2023-01-30T09:33:47;4.90;99.90
37478;DHT22;23334;54.316;10.182;2023-01-30T09:36:12;5.40;99.90
37478;DHT22;23334;54.316;10.182;2023-01-30T09:38:38;5.40;99.90
37478;DHT22;23334;54.316;10.182;2023-01-30T09:41:44;5.80;99.90
37478;DHT22;23334;54.316;10.182;2023-01-30T09:47:08;6.10;99.90
37478;DHT22;23334;54.316;10.182;2023-01-30T09:50:01;6.30;99.90
37478;DHT22;23334;54.316;10.182;2023-01-30T09:55:20;6.50;99.90
37478;DHT22;23334;54.316;10.182;2023-01-30T09:57:47;6.80;99.90
37478;DHT22;23334;54.316;10.182;2023-01-30T10:00:37;7.30;99.90
37478;DHT22;23334;54.316;10.182;2023-01-30T10:03:23;6.80;99.90
37478;DHT22;23334;54.316;10.182;2023-01-30T10:06:01;7.10;99.90
37478;DHT22;23334;54.316;10.182;2023-01-30T10:16:39;6.40;99.90
37478;DHT22;23334;54.316;10.182;2023-01-30T10:26:59;5.40;99.90
37478;DHT22;23334;54.316;10.182;2023-01-30T10:31:57;5.40;99.90
37478;DHT22;23334;54.316;10.182;2023-01-30T10:34:37;4.80;99.90
37478;DHT22;23334;54.316;10.182;2023-01-30T10:40:28;5.00;99.90
37478;DHT22;23334;54.316;10.182;2023-01-30T10:45:44;4.70;99.90
37478;DHT22;23334;54.316;10.182;2023-01-30T10:48:34;4.60;99.90
37478;DHT22;23334;54.316;10.182;2023-01-30T10:51:08;5.20;99.90
37478;DHT22;23334;54.316;10.182;2023-01-30T10:53:55;5.00;99.90
37478;DHT22;23334;54.316;10.182;2023-01-30T11:02:15;5.70;99.90
37478;DHT22;23334;54.316;10.182;2023-01-30T11:04:55;5.80;99.90
37478;DHT22;23334;54.316;10.182;2023-01-30T11:07:22;5.50;99.90
37478;DHT22;23334;54.316;10.182;2023-01-30T11:09:47;5.80;99.90
37478;DHT22;23334;54.316;10.182;2023-01-30T11:12:13;6.10;99.90
37478;DHT22;23334;54.316;10.182;2023-01-30T11:14:53;5.60;99.90
37478;DHT22;23334;54.316;10.182;2023-01-30T11:17:28;5.90;99.90
37478;DHT22;23334;54.316;10.182;2023-01-30T11:19:56;6.10;99.90
37478;DHT22;23334;54.316;10.182;2023-01-30T11:22:24;7.00;99.90
37478;DHT22;23334;54.316;10.182;2023-01-30T11:25:20;6.10;99.90
37478;DHT22;23334;54.316;10.182;2023-01-30T11:28:04;7.50;99.90
37478;DHT22;23334;54.316;10.182;2023-01-30T11:30:34;6.70;99.90
37478;DHT22;23334;54.316;10.182;2023-01-30T11:33:11;6.60;99.90
37478;DHT22;23334;54.316;10.182;2023-01-30T11:35:43;6.80;99.90
37478;DHT22;23334;54.316;10.182;2023-01-30T11:38:35;6.50;99.90
37478;DHT22;23334;54.316;10.182;2023-01-30T11:43:37;6.70;99.90
37478;DHT22;23334;54.316;10.182;2023-01-30T11:46:05;6.70;99.90
37478;DHT22;23334;54.316;10.182;2023-01-30T11:48:32;7.40;99.90
37478;DHT22;23334;54.316;10.182;2023-01-30T11:51:04;7.80;99.90
37478;DHT22;23334;54.316;10.182;2023-01-30T11:53:43;7.90;99.90
37478;DHT22;23334;54.316;10.182;2023-01-30T11:56:21;7.50;99.90
37478;DHT22;23334;54.316;10.182;2023-01-30T11:58:57;6.80;99.90
37478;DHT22;23334;54.316;10.182;2023-01-30T12:01:29;8.00;99.90
37478;DHT22;23334;54.316;10.182;2023-01-30T12:03:56;6.30;99.90
37478;DHT22;23334;54.316;10.182;2023-01-30T12:06:24;6.30;99.90
37478;DHT22;23334;54.316;10.182;2023-01-30T12:08:53;6.40;99.90
37478;DHT22;23334;54.316;10.182;2023-01-30T12:11:45;6.30;99.90
37478;DHT22;23334;54.316;10.182;2023-01-30T12:16:55;7.10;99.90
37478;DHT22;23334;54.316;10.182;2023-01-30T12:19:39;7.30;99.90
37478;DHT22;23334;54.316;10.182;2023-01-30T12:22:20;7.00;99.90
37478;DHT22;23334;54.316;10.182;2023-01-30T12:24:57;7.20;99.90
37478;DHT22;23334;54.316;10.182;2023-01-30T12:27:37;7.00;99.90
37478;DHT22;23334;54.316;10.182;2023-01-30T12:30:34;7.10;99.90
37478;DHT22;23334;54.316;10.182;2023-01-30T12:33:04;7.40;99.90
37478;DHT22;23334;54.316;10.182;2023-01-30T12:35:45;6.60;99.90
37478;DHT22;23334;54.316;10.182;2023-01-30T12:38:35;6.40;99.90
37478;DHT22;23334;54.316;10.182;2023-01-30T12:41:22;6.60;99.90
37478;DHT22;23334;54.316;10.182;2023-01-30T12:44:04;6.70;99.90
37478;DHT22;23334;54.316;10.182;2023-01-30T12:46:47;6.50;99.90
37478;DHT22;23334;54.316;10.182;2023-01-30T12:52:26;6.70;99.90
37478;DHT22;23334;54.316;10.182;2023-01-30T12:55:21;6.80;99.90
37478;DHT22;23334;54.316;10.182;2023-01-30T12:58:00;6.80;99.90
37478;DHT22;23334;54.316;10.182;2023-01-30T13:00:55;6.90;99.90
37478;DHT22;23334;54.316;10.182;2023-01-30T13:03:43;6.90;99.90
37478;DHT22;23334;54.316;10.182;2023-01-30T13:09:22;6.80;99.90
37478;DHT22;23334;54.316;10.182;2023-01-30T13:11:55;7.00;99.90
37478;DHT22;23334;54.316;10.182;2023-01-30T13:17:38;7.10;99.90
37478;DHT22;23334;54.316;10.182;2023-01-30T13:20:18;7.20;99.90
37478;DHT22;23334;54.316;10.182;2023-01-30T13:28:18;6.80;99.90
37478;DHT22;23334;54.316;10.182;2023-01-30T13:30:46;6.80;99.90
37478;DHT22;23334;54.316;10.182;2023-01-30T13:33:19;6.50;99.90
37478;DHT22;23334;54.316;10.182;2023-01-30T13:36:20;7.00;99.90
37478;DHT22;23334;54.316;10.182;2023-01-30T13:38:59;7.00;99.90
37478;DHT22;23334;54.316;10.182;2023-01-30T13:41:30;7.00;99.90
37478;DHT22;23334;54.316;10.182;2023-01-30T13:43:58;6.90;99.90
37478;DHT22;23334;54.316;10.182;2023-01-30T13:46:26;7.10;99.90
37478;DHT22;23334;54.316;10.182;2023-01-30T13:56:41;6.90;99.90
37478;DHT22;23334;54.316;10.182;2023-01-30T14:07:30;6.80;99.90
37478;DHT22;23334;54.316;10.182;2023-01-30T14:12:43;6.90;99.90
37478;DHT22;23334;54.316;10.182;2023-01-30T14:20:29;6.90;99.90
37478;DHT22;23334;54.316;10.182;2023-01-30T14:23:01;6.70;99.90
37478;DHT22;23334;54.316;10.182;2023-01-30T14:30:37;6.90;99.90
37478;DHT22;23334;54.316;10.182;2023-01-30T14:38:24;6.80;99.90
37478;DHT22;23334;54.316;10.182;2023-01-30T14:45:57;6.90;99.90
37478;DHT22;23334;54.316;10.182;2023-01-30T14:51:22;6.80;99.90
37478;DHT22;23334;54.316;10.182;2023-01-30T14:59:45;6.70;99.90
37478;DHT22;23334;54.316;10.182;2023-01-30T15:07:46;6.70;99.90
37478;DHT22;23334;54.316;10.182;2023-01-30T15:16:20;6.70;99.90
37478;DHT22;23334;54.316;10.182;2023-01-30T15:18:59;6.30;99.90
37478;DHT22;23334;54.316;10.182;2023-01-30T15:21:45;6.50;99.90
37478;DHT22;23334;54.316;10.182;2023-01-30T15:29:21;6.40;99.90
37478;DHT22;23334;54.316;10.182;2023-01-30T15:31:59;6.10;99.90
37478;DHT22;23334;54.316;10.182;2023-01-30T15:34:29;6.10;99.90
37478;DHT22;23334;54.316;10.182;2023-01-30T15:36:56;6.40;99.90
37478;DHT22;23334;54.316;10.182;2023-01-30T15:39:24;6.30;99.90
37478;DHT22;23334;54.316;10.182;2023-01-30T15:41:51;6.10;99.90
37478;DHT22;23334;54.316;10.182;2023-01-30T15:46:54;6.20;99.90
37478;DHT22;23334;54.316;10.182;2023-01-30T15:49:58;6.10;99.90
37478;DHT22;23334;54.316;10.182;2023-01-30T15:52:39;6.10;99.90
37478;DHT22;23334;54.316;10.182;2023-01-30T15:55:19;6.10;99.90
37478;DHT22;23334;54.316;10.182;2023-01-30T15:57:49;6.10;99.90
37478;DHT22;23334;54.316;10.182;2023-01-30T16:02:48;5.90;99.90
37478;DHT22;23334;54.316;10.182;2023-01-30T16:05:19;5.60;99.90
37478;DHT22;23334;54.316;10.182;2023-01-30T16:07:47;5.90;99.90
37478;DHT22;23334;54.316;10.182;2023-01-30T16:10:16;5.90;99.90
37478;DHT22;23334;54.316;10.182;2023-01-30T16:12:42;7.70;99.90
37478;DHT22;23334;54.316;10.182;2023-01-30T16:26:17;5.90;99.90
37478;DHT22;23334;54.316;10.182;2023-01-30T16:28:47;5.90;99.90
37478;DHT22;23334;54.316;10.182;2023-01-30T16:31:14;5.50;99.90
37478;DHT22;23334;54.316;10.182;2023-01-30T16:33:41;5.60;99.90
37478;DHT22;23334;54.316;10.182;2023-01-30T16:36:29;6.40;99.90
37478;DHT22;23334;54.316;10.182;2023-01-30T16:38:57;5.90;99.90
37478;DHT22;23334;54.316;10.182;2023-01-30T16:41:37;5.70;99.90
37478;DHT22;23334;54.316;10.182;2023-01-30T16:44:21;5.50;99.90
37478;DHT22;23334;54.316;10.182;2023-01-30T16:47:05;5.50;99.90
37478;DHT22;23334;54.316;10.182;2023-01-30T16:52:19;5.70;99.90
37478;DHT22;23334;54.316;10.182;2023-01-30T16:54:53;5.70;99.90
37478;DHT22;23334;54.316;10.182;2023-01-30T16:57:33;5.40;99.90
37478;DHT22;23334;54.316;10.182;2023-01-30T17:00:02;5.60;99.90
37478;DHT22;23334;54.316;10.182;2023-01-30T17:02:37;6.40;99.90
37478;DHT22;23334;54.316;10.182;2023-01-30T17:05:22;5.30;99.90
37478;DHT22;23334;54.316;10.182;2023-01-30T17:07:49;5.50;99.90
37478;DHT22;23334;54.316;10.182;2023-01-30T17:12:53;5.10;99.90
37478;DHT22;23334;54.316;10.182;2023-01-30T17:20:11;5.50;99.90
37478;DHT22;23334;54.316;10.182;2023-01-30T17:22:39;5.20;99.90
37478;DHT22;23334;54.316;10.182;2023-01-30T17:25:17;5.10;99.90
37478;DHT22;23334;54.316;10.182;2023-01-30T17:27:46;5.20;99.90
37478;DHT22;23334;54.316;10.182;2023-01-30T17:30:14;5.20;99.90
37478;DHT22;23334;54.316;10.182;2023-01-30T17:32:40;5.30;99.90
37478;DHT22;23334;54.316;10.182;2023-01-30T17:35:05;4.90;99.90
37478;DHT22;23334;54.316;10.182;2023-01-30T17:37:31;5.30;99.90
37478;DHT22;23334;54.316;10.182;2023-01-30T17:39:56;5.20;99.90
37478;DHT22;23334;54.316;10.182;2023-01-30T17:42:22;4.70;99.90
37478;DHT22;23334;54.316;10.182;2023-01-30T17:44:48;5.30;99.90
37478;DHT22;23334;54.316;10.182;2023-01-30T17:49:39;5.20;99.90
37478;DHT22;23334;54.316;10.182;2023-01-30T17:52:06;5.70;99.90
37478;DHT22;23334;54.316;10.182;2023-01-30T17:54:32;5.30;99.90
37478;DHT22;23334;54.316;10.182;2023-01-30T17:57:03;5.10;99.90
37478;DHT22;23334;54.316;10.182;2023-01-30T17:59:29;5.80;99.90
37478;DHT22;23334;54.316;10.182;2023-01-30T18:01:55;5.00;99.90
37478;DHT22;23334;54.316;10.182;2023-01-30T18:04:20;4.70;99.90
37478;DHT22;23334;54.316;10.182;2023-01-30T18:06:49;5.30;99.90
37478;DHT22;23334;54.316;10.182;2023-01-30T18:09:21;4.80;99.90
37478;DHT22;23334;54.316;10.182;2023-01-30T18:11:47;4.50;99.90
37478;DHT22;23334;54.316;10.182;2023-01-30T18:14:13;4.60;99.90
37478;DHT22;23334;54.316;10.182;2023-01-30T18:19:07;4.60;99.90
37478;DHT22;23334;54.316;10.182;2023-01-30T18:21:35;4.60;99.90
37478;DHT22;23334;54.316;10.182;2023-01-30T18:24:02;4.70;99.90
37478;DHT22;23334;54.316;10.182;2023-01-30T18:26:29;4.70;99.90
37478;DHT22;23334;54.316;10.182;2023-01-30T18:28:55;4.70;99.90
37478;DHT22;23334;54.316;10.182;2023-01-30T18:31:21;4.70;99.90
37478;DHT22;23334;54.316;10.182;2023-01-30T18:33:49;5.70;99.90
37478;DHT22;23334;54.316;10.182;2023-01-30T18:36:16;4.40;99.90
37478;DHT22;23334;54.316;10.182;2023-01-30T18:38:43;4.30;99.90
37478;DHT22;23334;54.316;10.182;2023-01-30T18:41:13;4.50;99.90
37478;DHT22;23334;54.316;10.182;2023-01-30T18:43:40;4.40;99.90
37478;DHT22;23334;54.316;10.182;2023-01-30T18:46:11;4.20;99.90
37478;DHT22;23334;54.316;10.182;2023-01-30T18:48:37;4.20;99.90
37478;DHT22;23334;54.316;10.182;2023-01-30T18:51:13;4.40;99.90
37478;DHT22;23334;54.316;10.182;2023-01-30T18:53:40;4.10;99.90
37478;DHT22;23334;54.316;10.182;2023-01-30T18:56:07;4.10;99.90
37478;DHT22;23334;54.316;10.182;2023-01-30T18:58:34;4.30;99.90
37478;DHT22;23334;54.316;10.182;2023-01-30T19:01:08;4.40;99.90
37478;DHT22;23334;54.316;10.182;2023-01-30T19:03:34;4.40;99.90
37478;DHT22;23334;54.316;10.182;2023-01-30T19:06:00;4.20;99.90
37478;DHT22;23334;54.316;10.182;2023-01-30T19:08:26;4.30;99.90
37478;DHT22;23334;54.316;10.182;2023-01-30T19:10:51;4.50;99.90
37478;DHT22;23334;54.316;10.182;2023-01-30T19:16:02;4.50;99.90
37478;DHT22;23334;54.316;10.182;2023-01-30T19:18:30;4.60;99.90
37478;DHT22;23334;54.316;10.182;2023-01-30T19:20:59;4.50;99.90
37478;DHT22;23334;54.316;10.182;2023-01-30T19:23:29;4.10;99.90
37478;DHT22;23334;54.316;10.182;2023-01-30T19:25:57;4.20;99.90
37478;DHT22;23334;54.316;10.182;2023-01-30T19:28:25;4.20;99.90
37478;DHT22;23334;54.316;10.182;2023-01-30T19:30:51;4.50;99.90
37478;DHT22;23334;54.316;10.182;2023-01-30T19:33:16;4.30;99.90
37478;DHT22;23334;54.316;10.182;2023-01-30T19:35:42;4.10;99.90
37478;DHT22;23334;54.316;10.182;2023-01-30T19:38:09;4.00;99.90